Hauptseite
METAR-TAF:

METAR-TAF

Flughäfen :

Flughafen Valence-Chabeuil

Valence, Frankreich

Breite: 44-54-58N, Länge: 4-58-06E, Höhe: 160 m

Beobachtung

Neuester Wetterbericht von vor 1 Stunde und 31 Minuten, um 18:00 UTC
Wind 17 kt aus Nord/Nordost
Temperatur 15°C
Luftfeuchtigkeit 63%
Luftdruck 1019 hPa
Sichtweite 10 km oder mehr
keine Wolken unter 1500 m und keine Kumulonimbus oder Gewitterwolken

METAR: LFLU 211800Z AUTO 02017KT CAVOK 15/08 Q1019

Zeit: 21:31 (19:31 UTC)


TAF: fehlend

Wetterbeobachtungen und Prognosen von mehr als 4000 Flughäfen (METAR und TAF Bericht).

Die verfügbaren Stationen werden durch gelbe und rote Markierungen auf der Karte dargestellt.

Führen Sie die Maus auf sie, um den Namen der Station zu sehen.

Darauf klicken, um die Beobachtung von Wetterbeobachtungen und Prognosen zu sehen.

Um die Karte zu ändern : klicken Sie auf den grünen Tasten mit einem schwarzen Kreuz Zum Vergrößern, auf den grünen Button mit einem Gedankenstrich zu verkleinern, oder auf die grünen Pfeile für benachbarte Karten.


METAR-TAF: